sensor_id;sensor_type;location;lat;lon;timestamp;pressure;altitude;pressure_sealevel;temperature;humidity
51526;BME280;37611;51.794;21.590;2024-02-21T00:03:15;100413.17;;;4.27;100.00
51526;BME280;37611;51.794;21.590;2024-02-21T00:07:17;100413.35;;;4.24;100.00
51526;BME280;37611;51.794;21.590;2024-02-21T00:11:19;100412.29;;;4.22;100.00
51526;BME280;37611;51.794;21.590;2024-02-21T00:15:21;100411.28;;;4.21;100.00
51526;BME280;37611;51.794;21.590;2024-02-21T00:19:22;100414.06;;;4.18;100.00
51526;BME280;37611;51.794;21.590;2024-02-21T00:23:24;100412.13;;;4.16;100.00
51526;BME280;37611;51.794;21.590;2024-02-21T00:27:26;100412.98;;;4.11;100.00
51526;BME280;37611;51.794;21.590;2024-02-21T00:31:28;100409.89;;;4.08;100.00
51526;BME280;37611;51.794;21.590;2024-02-21T00:35:29;100407.45;;;4.06;100.00
51526;BME280;37611;51.794;21.590;2024-02-21T00:39:31;100403.15;;;4.05;100.00
51526;BME280;37611;51.794;21.590;2024-02-21T00:43:33;100406.00;;;4.01;100.00
51526;BME280;37611;51.794;21.590;2024-02-21T00:47:34;100407.41;;;3.98;100.00
51526;BME280;37611;51.794;21.590;2024-02-21T00:51:36;100407.31;;;3.94;100.00
51526;BME280;37611;51.794;21.590;2024-02-21T00:55:38;100403.57;;;3.93;100.00
51526;BME280;37611;51.794;21.590;2024-02-21T00:59:39;100398.34;;;3.91;100.00
51526;BME280;37611;51.794;21.590;2024-02-21T01:03:43;100397.45;;;3.88;100.00
51526;BME280;37611;51.794;21.590;2024-02-21T01:07:44;100396.01;;;3.90;100.00
51526;BME280;37611;51.794;21.590;2024-02-21T01:11:47;100394.15;;;3.89;100.00
51526;BME280;37611;51.794;21.590;2024-02-21T01:15:48;100391.81;;;3.90;100.00
51526;BME280;37611;51.794;21.590;2024-02-21T01:19:50;100387.16;;;3.92;100.00
51526;BME280;37611;51.794;21.590;2024-02-21T01:23:52;100384.59;;;3.92;100.00
51526;BME280;37611;51.794;21.590;2024-02-21T01:27:54;100379.66;;;3.90;100.00
51526;BME280;37611;51.794;21.590;2024-02-21T01:31:55;100379.09;;;3.89;100.00
51526;BME280;37611;51.794;21.590;2024-02-21T01:35:57;100376.26;;;3.87;100.00
51526;BME280;37611;51.794;21.590;2024-02-21T01:39:59;100372.73;;;3.83;100.00
51526;BME280;37611;51.794;21.590;2024-02-21T01:44:01;100375.31;;;3.83;100.00
51526;BME280;37611;51.794;21.590;2024-02-21T01:48:03;100369.20;;;3.81;100.00
51526;BME280;37611;51.794;21.590;2024-02-21T01:52:05;100367.55;;;3.82;100.00
51526;BME280;37611;51.794;21.590;2024-02-21T01:56:08;100374.20;;;3.81;100.00
51526;BME280;37611;51.794;21.590;2024-02-21T02:00:11;100367.96;;;3.81;100.00
51526;BME280;37611;51.794;21.590;2024-02-21T02:04:14;100363.33;;;3.78;100.00
51526;BME280;37611;51.794;21.590;2024-02-21T02:08:18;100357.06;;;3.76;100.00
51526;BME280;37611;51.794;21.590;2024-02-21T02:12:20;100359.27;;;3.74;100.00
51526;BME280;37611;51.794;21.590;2024-02-21T02:16:22;100358.86;;;3.75;100.00
51526;BME280;37611;51.794;21.590;2024-02-21T02:20:24;100356.10;;;3.77;100.00
51526;BME280;37611;51.794;21.590;2024-02-21T02:24:26;100356.70;;;3.79;100.00
51526;BME280;37611;51.794;21.590;2024-02-21T02:28:27;100354.73;;;3.77;100.00
51526;BME280;37611;51.794;21.590;2024-02-21T02:32:29;100355.30;;;3.74;100.00
51526;BME280;37611;51.794;21.590;2024-02-21T02:36:34;100354.24;;;3.72;100.00
51526;BME280;37611;51.794;21.590;2024-02-21T02:40:37;100350.20;;;3.69;100.00
51526;BME280;37611;51.794;21.590;2024-02-21T02:44:39;100342.80;;;3.69;100.00
51526;BME280;37611;51.794;21.590;2024-02-21T02:48:41;100343.61;;;3.69;100.00
51526;BME280;37611;51.794;21.590;2024-02-21T02:52:42;100337.67;;;3.70;100.00
51526;BME280;37611;51.794;21.590;2024-02-21T02:56:44;100342.45;;;3.72;100.00
51526;BME280;37611;51.794;21.590;2024-02-21T03:00:46;100339.70;;;3.74;100.00
51526;BME280;37611;51.794;21.590;2024-02-21T03:04:48;100338.02;;;3.76;100.00
51526;BME280;37611;51.794;21.590;2024-02-21T03:08:49;100336.21;;;3.77;100.00
51526;BME280;37611;51.794;21.590;2024-02-21T03:12:53;100341.38;;;3.72;100.00
51526;BME280;37611;51.794;21.590;2024-02-21T03:16:56;100339.50;;;3.69;100.00
51526;BME280;37611;51.794;21.590;2024-02-21T03:20:58;100341.53;;;3.69;100.00
51526;BME280;37611;51.794;21.590;2024-02-21T03:24:59;100336.76;;;3.71;100.00
51526;BME280;37611;51.794;21.590;2024-02-21T03:29:01;100334.24;;;3.70;100.00
51526;BME280;37611;51.794;21.590;2024-02-21T03:33:03;100336.61;;;3.71;100.00
51526;BME280;37611;51.794;21.590;2024-02-21T03:37:05;100337.96;;;3.74;100.00
51526;BME280;37611;51.794;21.590;2024-02-21T03:41:07;100337.48;;;3.74;100.00
51526;BME280;37611;51.794;21.590;2024-02-21T03:45:09;100340.30;;;3.73;100.00
51526;BME280;37611;51.794;21.590;2024-02-21T03:49:11;100335.44;;;3.73;100.00
51526;BME280;37611;51.794;21.590;2024-02-21T03:53:13;100332.02;;;3.75;100.00
51526;BME280;37611;51.794;21.590;2024-02-21T03:57:15;100330.48;;;3.77;100.00
51526;BME280;37611;51.794;21.590;2024-02-21T04:01:16;100333.97;;;3.77;100.00
51526;BME280;37611;51.794;21.590;2024-02-21T04:05:18;100333.97;;;3.77;100.00
51526;BME280;37611;51.794;21.590;2024-02-21T04:09:20;100328.11;;;3.76;100.00
51526;BME280;37611;51.794;21.590;2024-02-21T04:13:22;100323.85;;;3.76;100.00
51526;BME280;37611;51.794;21.590;2024-02-21T04:17:24;100321.83;;;3.75;100.00
51526;BME280;37611;51.794;21.590;2024-02-21T04:21:26;100323.70;;;3.75;100.00
51526;BME280;37611;51.794;21.590;2024-02-21T04:25:28;100323.70;;;3.73;100.00
51526;BME280;37611;51.794;21.590;2024-02-21T04:29:29;100324.09;;;3.74;100.00
51526;BME280;37611;51.794;21.590;2024-02-21T04:33:32;100323.83;;;3.76;100.00
51526;BME280;37611;51.794;21.590;2024-02-21T04:37:34;100326.77;;;3.76;100.00
51526;BME280;37611;51.794;21.590;2024-02-21T04:41:35;100322.15;;;3.77;100.00
51526;BME280;37611;51.794;21.590;2024-02-21T04:45:37;100319.86;;;3.76;100.00
51526;BME280;37611;51.794;21.590;2024-02-21T04:49:39;100321.43;;;3.75;100.00
51526;BME280;37611;51.794;21.590;2024-02-21T04:53:41;100315.75;;;3.72;100.00
51526;BME280;37611;51.794;21.590;2024-02-21T04:57:43;100324.55;;;3.70;100.00
51526;BME280;37611;51.794;21.590;2024-02-21T05:01:44;100321.75;;;3.71;100.00
51526;BME280;37611;51.794;21.590;2024-02-21T05:05:46;100322.06;;;3.68;100.00
51526;BME280;37611;51.794;21.590;2024-02-21T05:09:48;100320.05;;;3.67;100.00
51526;BME280;37611;51.794;21.590;2024-02-21T05:13:50;100318.84;;;3.67;100.00
51526;BME280;37611;51.794;21.590;2024-02-21T05:17:52;100315.34;;;3.68;100.00
51526;BME280;37611;51.794;21.590;2024-02-21T05:21:54;100316.94;;;3.67;100.00
51526;BME280;37611;51.794;21.590;2024-02-21T05:25:56;100315.29;;;3.66;100.00
51526;BME280;37611;51.794;21.590;2024-02-21T05:29:57;100310.70;;;3.62;100.00
51526;BME280;37611;51.794;21.590;2024-02-21T05:34:00;100314.30;;;3.59;100.00
51526;BME280;37611;51.794;21.590;2024-02-21T05:38:06;100312.54;;;3.57;100.00
51526;BME280;37611;51.794;21.590;2024-02-21T05:42:12;100314.79;;;3.55;100.00
51526;BME280;37611;51.794;21.590;2024-02-21T05:46:14;100312.34;;;3.55;100.00
51526;BME280;37611;51.794;21.590;2024-02-21T05:50:16;100311.83;;;3.55;100.00
51526;BME280;37611;51.794;21.590;2024-02-21T05:54:18;100312.46;;;3.56;100.00
51526;BME280;37611;51.794;21.590;2024-02-21T05:58:20;100302.20;;;3.54;100.00
51526;BME280;37611;51.794;21.590;2024-02-21T06:02:22;100305.04;;;3.56;100.00
51526;BME280;37611;51.794;21.590;2024-02-21T06:06:24;100308.42;;;3.57;100.00
51526;BME280;37611;51.794;21.590;2024-02-21T06:10:26;100305.99;;;3.60;100.00
51526;BME280;37611;51.794;21.590;2024-02-21T06:14:28;100306.49;;;3.62;100.00
51526;BME280;37611;51.794;21.590;2024-02-21T06:18:29;100313.20;;;3.66;100.00
51526;BME280;37611;51.794;21.590;2024-02-21T06:22:31;100310.71;;;3.69;100.00
51526;BME280;37611;51.794;21.590;2024-02-21T06:26:33;100314.20;;;3.75;100.00
51526;BME280;37611;51.794;21.590;2024-02-21T06:30:35;100307.09;;;3.83;100.00
51526;BME280;37611;51.794;21.590;2024-02-21T06:34:37;100303.46;;;3.93;100.00
51526;BME280;37611;51.794;21.590;2024-02-21T06:38:39;100300.97;;;3.99;100.00
51526;BME280;37611;51.794;21.590;2024-02-21T06:42:41;100303.52;;;4.07;100.00
51526;BME280;37611;51.794;21.590;2024-02-21T06:46:42;100303.98;;;4.16;100.00
51526;BME280;37611;51.794;21.590;2024-02-21T06:50:45;100304.60;;;4.22;100.00
51526;BME280;37611;51.794;21.590;2024-02-21T06:54:47;100308.97;;;4.27;100.00
51526;BME280;37611;51.794;21.590;2024-02-21T06:58:48;100307.48;;;4.33;100.00
51526;BME280;37611;51.794;21.590;2024-02-21T07:02:50;100305.45;;;4.40;100.00
51526;BME280;37611;51.794;21.590;2024-02-21T07:06:52;100300.91;;;4.46;100.00
51526;BME280;37611;51.794;21.590;2024-02-21T07:10:54;100300.69;;;4.49;100.00
51526;BME280;37611;51.794;21.590;2024-02-21T07:14:56;100300.17;;;4.54;100.00
51526;BME280;37611;51.794;21.590;2024-02-21T07:18:57;100296.06;;;4.53;100.00
51526;BME280;37611;51.794;21.590;2024-02-21T07:22:59;100294.92;;;4.59;100.00
51526;BME280;37611;51.794;21.590;2024-02-21T07:27:01;100294.02;;;4.68;100.00
51526;BME280;37611;51.794;21.590;2024-02-21T07:31:05;100290.26;;;4.74;100.00
51526;BME280;37611;51.794;21.590;2024-02-21T07:35:08;100281.90;;;4.77;100.00
51526;BME280;37611;51.794;21.590;2024-02-21T07:39:12;100279.48;;;4.82;100.00
51526;BME280;37611;51.794;21.590;2024-02-21T07:43:14;100274.42;;;4.89;100.00
51526;BME280;37611;51.794;21.590;2024-02-21T07:47:15;100272.54;;;5.04;100.00
51526;BME280;37611;51.794;21.590;2024-02-21T07:51:17;100277.52;;;5.19;100.00
51526;BME280;37611;51.794;21.590;2024-02-21T07:55:19;100276.46;;;5.27;100.00
51526;BME280;37611;51.794;21.590;2024-02-21T07:59:21;100275.23;;;5.29;100.00
51526;BME280;37611;51.794;21.590;2024-02-21T08:03:22;100278.79;;;5.30;100.00
51526;BME280;37611;51.794;21.590;2024-02-21T08:07:24;100275.66;;;5.30;100.00
51526;BME280;37611;51.794;21.590;2024-02-21T08:11:26;100276.30;;;5.31;100.00
51526;BME280;37611;51.794;21.590;2024-02-21T08:15:29;100274.76;;;5.33;100.00
51526;BME280;37611;51.794;21.590;2024-02-21T08:19:31;100275.33;;;5.39;100.00
51526;BME280;37611;51.794;21.590;2024-02-21T08:23:32;100278.96;;;5.45;100.00
51526;BME280;37611;51.794;21.590;2024-02-21T08:27:34;100271.62;;;5.48;100.00
51526;BME280;37611;51.794;21.590;2024-02-21T08:31:36;100271.22;;;5.51;100.00
51526;BME280;37611;51.794;21.590;2024-02-21T08:35:38;100270.34;;;5.49;100.00
51526;BME280;37611;51.794;21.590;2024-02-21T08:39:39;100265.90;;;5.52;100.00
51526;BME280;37611;51.794;21.590;2024-02-21T08:43:41;100264.12;;;5.53;100.00
51526;BME280;37611;51.794;21.590;2024-02-21T08:47:43;100264.65;;;5.55;100.00
51526;BME280;37611;51.794;21.590;2024-02-21T08:51:45;100258.17;;;5.58;100.00
51526;BME280;37611;51.794;21.590;2024-02-21T08:55:47;100258.92;;;5.60;100.00
51526;BME280;37611;51.794;21.590;2024-02-21T08:59:49;100258.30;;;5.59;100.00
51526;BME280;37611;51.794;21.590;2024-02-21T09:03:51;100255.50;;;5.61;100.00
51526;BME280;37611;51.794;21.590;2024-02-21T09:07:55;100254.99;;;5.63;100.00
51526;BME280;37611;51.794;21.590;2024-02-21T09:11:56;100253.71;;;5.64;100.00
51526;BME280;37611;51.794;21.590;2024-02-21T09:15:58;100250.34;;;5.72;100.00
51526;BME280;37611;51.794;21.590;2024-02-21T09:20:00;100246.80;;;5.84;100.00
51526;BME280;37611;51.794;21.590;2024-02-21T09:24:07;100245.56;;;5.99;100.00
51526;BME280;37611;51.794;21.590;2024-02-21T09:28:09;100244.48;;;6.11;100.00
51526;BME280;37611;51.794;21.590;2024-02-21T09:32:11;100238.59;;;6.18;100.00
51526;BME280;37611;51.794;21.590;2024-02-21T09:36:14;100241.48;;;6.27;100.00
51526;BME280;37611;51.794;21.590;2024-02-21T09:40:16;100240.70;;;6.48;100.00
51526;BME280;37611;51.794;21.590;2024-02-21T09:44:19;100236.56;;;6.70;100.00
51526;BME280;37611;51.794;21.590;2024-02-21T09:52:46;100233.89;;;6.97;100.00
51526;BME280;37611;51.794;21.590;2024-02-21T09:56:49;100231.92;;;6.98;100.00
51526;BME280;37611;51.794;21.590;2024-02-21T10:00:51;100230.62;;;7.05;100.00
51526;BME280;37611;51.794;21.590;2024-02-21T10:04:52;100226.17;;;7.06;100.00
51526;BME280;37611;51.794;21.590;2024-02-21T10:08:54;100225.80;;;6.98;100.00
51526;BME280;37611;51.794;21.590;2024-02-21T10:12:56;100227.21;;;6.98;100.00
51526;BME280;37611;51.794;21.590;2024-02-21T10:16:59;100221.31;;;7.04;100.00
51526;BME280;37611;51.794;21.590;2024-02-21T10:21:05;100216.07;;;7.13;100.00
51526;BME280;37611;51.794;21.590;2024-02-21T10:25:09;100211.97;;;7.25;100.00
51526;BME280;37611;51.794;21.590;2024-02-21T10:29:10;100206.15;;;7.26;100.00
51526;BME280;37611;51.794;21.590;2024-02-21T10:33:15;100205.25;;;7.26;100.00
51526;BME280;37611;51.794;21.590;2024-02-21T10:37:17;100198.60;;;7.34;100.00
51526;BME280;37611;51.794;21.590;2024-02-21T10:41:20;100197.02;;;7.35;100.00
51526;BME280;37611;51.794;21.590;2024-02-21T10:45:34;100194.89;;;7.38;100.00
51526;BME280;37611;51.794;21.590;2024-02-21T10:49:40;100188.69;;;7.41;100.00
51526;BME280;37611;51.794;21.590;2024-02-21T10:57:52;100175.27;;;7.49;100.00
51526;BME280;37611;51.794;21.590;2024-02-21T11:01:54;100177.48;;;7.44;100.00
51526;BME280;37611;51.794;21.590;2024-02-21T11:05:56;100171.21;;;7.48;100.00
51526;BME280;37611;51.794;21.590;2024-02-21T11:09:58;100162.88;;;7.54;100.00
51526;BME280;37611;51.794;21.590;2024-02-21T11:14:18;100156.59;;;7.56;100.00
51526;BME280;37611;51.794;21.590;2024-02-21T11:18:23;100146.16;;;7.58;100.00
51526;BME280;37611;51.794;21.590;2024-02-21T11:22:25;100145.85;;;7.57;100.00
51526;BME280;37611;51.794;21.590;2024-02-21T11:26:31;100140.45;;;7.57;100.00
51526;BME280;37611;51.794;21.590;2024-02-21T11:30:37;100135.75;;;7.59;100.00
51526;BME280;37611;51.794;21.590;2024-02-21T11:34:39;100134.88;;;7.70;100.00
51526;BME280;37611;51.794;21.590;2024-02-21T11:38:44;100137.30;;;7.76;100.00
51526;BME280;37611;51.794;21.590;2024-02-21T11:42:46;100131.16;;;7.76;100.00
51526;BME280;37611;51.794;21.590;2024-02-21T11:46:48;100130.33;;;7.70;100.00
51526;BME280;37611;51.794;21.590;2024-02-21T11:50:54;100127.30;;;7.69;100.00
51526;BME280;37611;51.794;21.590;2024-02-21T11:54:56;100122.10;;;7.70;100.00
51526;BME280;37611;51.794;21.590;2024-02-21T11:59:06;100111.13;;;7.72;100.00
51526;BME280;37611;51.794;21.590;2024-02-21T12:03:08;100110.62;;;7.61;100.00
51526;BME280;37611;51.794;21.590;2024-02-21T12:07:10;100101.48;;;7.60;100.00
51526;BME280;37611;51.794;21.590;2024-02-21T12:11:24;100097.36;;;7.64;100.00
51526;BME280;37611;51.794;21.590;2024-02-21T12:15:26;100093.30;;;7.69;100.00
51526;BME280;37611;51.794;21.590;2024-02-21T12:19:32;100085.99;;;7.69;100.00
51526;BME280;37611;51.794;21.590;2024-02-21T12:23:34;100089.13;;;7.67;100.00
51526;BME280;37611;51.794;21.590;2024-02-21T12:27:35;100082.13;;;7.67;100.00
51526;BME280;37611;51.794;21.590;2024-02-21T12:31:38;100079.41;;;7.66;100.00
51526;BME280;37611;51.794;21.590;2024-02-21T12:35:39;100074.23;;;7.65;100.00
51526;BME280;37611;51.794;21.590;2024-02-21T12:39:41;100068.34;;;7.63;100.00
51526;BME280;37611;51.794;21.590;2024-02-21T12:43:43;100060.05;;;7.62;100.00
51526;BME280;37611;51.794;21.590;2024-02-21T12:47:45;100058.38;;;7.61;100.00
51526;BME280;37611;51.794;21.590;2024-02-21T12:51:47;100055.02;;;7.58;100.00
51526;BME280;37611;51.794;21.590;2024-02-21T12:55:49;100055.98;;;7.58;100.00
51526;BME280;37611;51.794;21.590;2024-02-21T12:59:50;100048.86;;;7.58;100.00
51526;BME280;37611;51.794;21.590;2024-02-21T13:03:52;100045.66;;;7.49;100.00
51526;BME280;37611;51.794;21.590;2024-02-21T13:07:55;100046.44;;;7.46;100.00
51526;BME280;37611;51.794;21.590;2024-02-21T13:11:57;100041.23;;;7.40;100.00
51526;BME280;37611;51.794;21.590;2024-02-21T13:15:59;100044.80;;;7.37;100.00
51526;BME280;37611;51.794;21.590;2024-02-21T13:20:01;100039.42;;;7.34;100.00
51526;BME280;37611;51.794;21.590;2024-02-21T13:24:03;100033.88;;;7.30;100.00
51526;BME280;37611;51.794;21.590;2024-02-21T13:28:05;100029.60;;;7.23;100.00
51526;BME280;37611;51.794;21.590;2024-02-21T13:32:07;100025.55;;;7.13;100.00
51526;BME280;37611;51.794;21.590;2024-02-21T13:36:09;100019.47;;;7.09;100.00
51526;BME280;37611;51.794;21.590;2024-02-21T13:40:11;100015.81;;;7.04;100.00
51526;BME280;37611;51.794;21.590;2024-02-21T13:44:15;100013.60;;;7.00;100.00
51526;BME280;37611;51.794;21.590;2024-02-21T13:48:16;100010.48;;;7.00;100.00
51526;BME280;37611;51.794;21.590;2024-02-21T13:52:18;100009.73;;;6.98;100.00
51526;BME280;37611;51.794;21.590;2024-02-21T13:56:23;100003.09;;;6.96;100.00
51526;BME280;37611;51.794;21.590;2024-02-21T14:00:25;99992.13;;;6.95;100.00
51526;BME280;37611;51.794;21.590;2024-02-21T14:04:28;99989.40;;;6.90;100.00
51526;BME280;37611;51.794;21.590;2024-02-21T14:08:31;99985.63;;;6.87;100.00
51526;BME280;37611;51.794;21.590;2024-02-21T14:12:35;99983.19;;;6.85;100.00
51526;BME280;37611;51.794;21.590;2024-02-21T14:16:37;99981.33;;;6.82;100.00
51526;BME280;37611;51.794;21.590;2024-02-21T14:20:39;99971.27;;;6.82;100.00
51526;BME280;37611;51.794;21.590;2024-02-21T14:24:40;99964.90;;;6.83;100.00
51526;BME280;37611;51.794;21.590;2024-02-21T14:28:43;99959.75;;;6.84;100.00
51526;BME280;37611;51.794;21.590;2024-02-21T14:32:45;99958.29;;;6.85;100.00
51526;BME280;37611;51.794;21.590;2024-02-21T14:36:47;99947.36;;;6.82;100.00
51526;BME280;37611;51.794;21.590;2024-02-21T14:40:49;99943.39;;;6.80;100.00
51526;BME280;37611;51.794;21.590;2024-02-21T14:44:51;99939.67;;;6.77;100.00
51526;BME280;37611;51.794;21.590;2024-02-21T14:48:52;99931.08;;;6.73;100.00
51526;BME280;37611;51.794;21.590;2024-02-21T14:52:55;99925.21;;;6.71;100.00
51526;BME280;37611;51.794;21.590;2024-02-21T14:56:57;99922.95;;;6.69;100.00
51526;BME280;37611;51.794;21.590;2024-02-21T15:00:59;99914.49;;;6.66;100.00
51526;BME280;37611;51.794;21.590;2024-02-21T15:05:01;99909.01;;;6.62;100.00
51526;BME280;37611;51.794;21.590;2024-02-21T15:09:05;99907.13;;;6.60;100.00
51526;BME280;37611;51.794;21.590;2024-02-21T15:13:08;99907.77;;;6.58;100.00
51526;BME280;37611;51.794;21.590;2024-02-21T15:17:11;99908.02;;;6.56;100.00
51526;BME280;37611;51.794;21.590;2024-02-21T15:21:14;99905.95;;;6.53;100.00
51526;BME280;37611;51.794;21.590;2024-02-21T15:25:16;99907.48;;;6.52;100.00
51526;BME280;37611;51.794;21.590;2024-02-21T15:29:19;99904.63;;;6.48;100.00
51526;BME280;37611;51.794;21.590;2024-02-21T15:33:22;99900.89;;;6.45;100.00
51526;BME280;37611;51.794;21.590;2024-02-21T15:37:24;99893.65;;;6.44;100.00
51526;BME280;37611;51.794;21.590;2024-02-21T15:41:26;99890.31;;;6.41;100.00
51526;BME280;37611;51.794;21.590;2024-02-21T15:45:28;99885.08;;;6.41;100.00
51526;BME280;37611;51.794;21.590;2024-02-21T15:49:30;99882.02;;;6.37;100.00
51526;BME280;37611;51.794;21.590;2024-02-21T15:53:31;99876.57;;;6.34;100.00
51526;BME280;37611;51.794;21.590;2024-02-21T15:57:33;99879.45;;;6.33;100.00
51526;BME280;37611;51.794;21.590;2024-02-21T16:01:35;99866.98;;;6.30;100.00
51526;BME280;37611;51.794;21.590;2024-02-21T16:05:37;99873.99;;;6.28;100.00
51526;BME280;37611;51.794;21.590;2024-02-21T16:09:39;99876.45;;;6.28;100.00
51526;BME280;37611;51.794;21.590;2024-02-21T16:13:45;99877.98;;;6.26;100.00
51526;BME280;37611;51.794;21.590;2024-02-21T16:17:48;99882.48;;;6.24;100.00
51526;BME280;37611;51.794;21.590;2024-02-21T16:21:49;99882.10;;;6.24;100.00
51526;BME280;37611;51.794;21.590;2024-02-21T16:25:52;99883.14;;;6.24;100.00
51526;BME280;37611;51.794;21.590;2024-02-21T16:29:53;99883.86;;;6.22;100.00
51526;BME280;37611;51.794;21.590;2024-02-21T16:33:55;99886.54;;;6.25;100.00
51526;BME280;37611;51.794;21.590;2024-02-21T16:37:57;99888.98;;;6.25;100.00
51526;BME280;37611;51.794;21.590;2024-02-21T16:41:59;99891.94;;;6.25;100.00
51526;BME280;37611;51.794;21.590;2024-02-21T16:46:04;99887.35;;;6.24;100.00
51526;BME280;37611;51.794;21.590;2024-02-21T16:50:06;99880.42;;;6.24;100.00
51526;BME280;37611;51.794;21.590;2024-02-21T16:54:08;99877.61;;;6.22;100.00
51526;BME280;37611;51.794;21.590;2024-02-21T16:58:10;99878.08;;;6.21;100.00
51526;BME280;37611;51.794;21.590;2024-02-21T17:02:12;99879.35;;;6.20;100.00
51526;BME280;37611;51.794;21.590;2024-02-21T17:06:14;99874.77;;;6.21;100.00
51526;BME280;37611;51.794;21.590;2024-02-21T17:10:16;99874.00;;;6.19;100.00
51526;BME280;37611;51.794;21.590;2024-02-21T17:14:18;99875.30;;;6.19;100.00
51526;BME280;37611;51.794;21.590;2024-02-21T17:18:20;99870.27;;;6.18;100.00
51526;BME280;37611;51.794;21.590;2024-02-21T17:22:24;99873.59;;;6.16;100.00
51526;BME280;37611;51.794;21.590;2024-02-21T17:26:25;99868.75;;;6.18;100.00
51526;BME280;37611;51.794;21.590;2024-02-21T17:30:27;99868.23;;;6.18;100.00
51526;BME280;37611;51.794;21.590;2024-02-21T17:34:29;99863.45;;;6.19;100.00
51526;BME280;37611;51.794;21.590;2024-02-21T17:38:31;99862.00;;;6.19;100.00
51526;BME280;37611;51.794;21.590;2024-02-21T17:42:36;99853.29;;;6.18;100.00
51526;BME280;37611;51.794;21.590;2024-02-21T17:46:41;99851.77;;;6.17;100.00
51526;BME280;37611;51.794;21.590;2024-02-21T17:50:44;99850.62;;;6.16;100.00
51526;BME280;37611;51.794;21.590;2024-02-21T17:54:46;99842.00;;;6.15;100.00
51526;BME280;37611;51.794;21.590;2024-02-21T17:58:49;99838.11;;;6.14;100.00
51526;BME280;37611;51.794;21.590;2024-02-21T18:02:50;99837.89;;;6.12;100.00
51526;BME280;37611;51.794;21.590;2024-02-21T18:06:52;99837.70;;;6.12;100.00
51526;BME280;37611;51.794;21.590;2024-02-21T18:10:54;99839.23;;;6.13;100.00
51526;BME280;37611;51.794;21.590;2024-02-21T18:14:57;99840.60;;;6.13;100.00
51526;BME280;37611;51.794;21.590;2024-02-21T18:18:58;99834.80;;;6.14;100.00
51526;BME280;37611;51.794;21.590;2024-02-21T18:23:00;99827.71;;;6.13;100.00
51526;BME280;37611;51.794;21.590;2024-02-21T18:27:02;99826.20;;;6.15;100.00
51526;BME280;37611;51.794;21.590;2024-02-21T18:31:05;99823.94;;;6.13;100.00
51526;BME280;37611;51.794;21.590;2024-02-21T18:35:08;99819.65;;;6.10;100.00
51526;BME280;37611;51.794;21.590;2024-02-21T18:39:09;99814.17;;;6.09;100.00
51526;BME280;37611;51.794;21.590;2024-02-21T18:43:12;99813.23;;;6.08;100.00
51526;BME280;37611;51.794;21.590;2024-02-21T18:47:14;99802.00;;;6.07;100.00
51526;BME280;37611;51.794;21.590;2024-02-21T18:51:16;99801.23;;;6.06;100.00
51526;BME280;37611;51.794;21.590;2024-02-21T18:55:19;99799.23;;;6.05;100.00
51526;BME280;37611;51.794;21.590;2024-02-21T18:59:21;99796.28;;;6.05;100.00
51526;BME280;37611;51.794;21.590;2024-02-21T19:03:22;99794.48;;;6.06;100.00
51526;BME280;37611;51.794;21.590;2024-02-21T19:07:24;99792.06;;;6.05;100.00
51526;BME280;37611;51.794;21.590;2024-02-21T19:11:26;99787.20;;;6.07;100.00
51526;BME280;37611;51.794;21.590;2024-02-21T19:15:28;99785.48;;;6.07;100.00
51526;BME280;37611;51.794;21.590;2024-02-21T19:19:30;99784.38;;;6.08;100.00
51526;BME280;37611;51.794;21.590;2024-02-21T19:23:31;99784.12;;;6.09;100.00
51526;BME280;37611;51.794;21.590;2024-02-21T19:27:33;99784.23;;;6.09;100.00
51526;BME280;37611;51.794;21.590;2024-02-21T19:31:35;99782.17;;;6.09;100.00
51526;BME280;37611;51.794;21.590;2024-02-21T19:35:37;99782.06;;;6.09;100.00
51526;BME280;37611;51.794;21.590;2024-02-21T19:39:41;99785.80;;;6.09;100.00
51526;BME280;37611;51.794;21.590;2024-02-21T19:43:43;99780.39;;;6.10;100.00
51526;BME280;37611;51.794;21.590;2024-02-21T19:47:44;99774.61;;;6.10;100.00
51526;BME280;37611;51.794;21.590;2024-02-21T19:51:46;99776.41;;;6.10;100.00
51526;BME280;37611;51.794;21.590;2024-02-21T19:55:48;99771.39;;;6.09;100.00
51526;BME280;37611;51.794;21.590;2024-02-21T19:59:51;99767.27;;;6.10;100.00
51526;BME280;37611;51.794;21.590;2024-02-21T20:03:53;99765.16;;;6.11;100.00
51526;BME280;37611;51.794;21.590;2024-02-21T20:07:55;99764.39;;;6.08;100.00
51526;BME280;37611;51.794;21.590;2024-02-21T20:11:57;99755.73;;;6.07;100.00
51526;BME280;37611;51.794;21.590;2024-02-21T20:16:00;99754.90;;;6.07;100.00
51526;BME280;37611;51.794;21.590;2024-02-21T20:20:02;99749.73;;;6.04;100.00
51526;BME280;37611;51.794;21.590;2024-02-21T20:24:06;99752.49;;;6.03;100.00
51526;BME280;37611;51.794;21.590;2024-02-21T20:28:08;99752.78;;;6.01;100.00
51526;BME280;37611;51.794;21.590;2024-02-21T20:32:11;99750.21;;;6.01;100.00
51526;BME280;37611;51.794;21.590;2024-02-21T20:36:13;99747.85;;;6.00;100.00
51526;BME280;37611;51.794;21.590;2024-02-21T20:40:15;99746.56;;;5.99;100.00
51526;BME280;37611;51.794;21.590;2024-02-21T20:44:17;99743.19;;;5.99;100.00
51526;BME280;37611;51.794;21.590;2024-02-21T20:48:19;99743.05;;;5.97;100.00
51526;BME280;37611;51.794;21.590;2024-02-21T20:52:21;99742.33;;;5.98;100.00
51526;BME280;37611;51.794;21.590;2024-02-21T20:56:22;99738.52;;;5.97;100.00
51526;BME280;37611;51.794;21.590;2024-02-21T21:00:24;99727.10;;;5.97;100.00
51526;BME280;37611;51.794;21.590;2024-02-21T21:04:26;99726.30;;;5.96;100.00